sensor_id;sensor_type;location;lat;lon;timestamp;P1;durP1;ratioP1;P2;durP2;ratioP2
6983;SDS011;3532;51.118;7.210;2022-12-07T00:00:55;34.30;;;27.67;;
6983;SDS011;3532;51.118;7.210;2022-12-07T00:03:28;28.73;;;24.97;;
6983;SDS011;3532;51.118;7.210;2022-12-07T00:05:56;32.50;;;26.57;;
6983;SDS011;3532;51.118;7.210;2022-12-07T00:08:22;33.30;;;27.10;;
6983;SDS011;3532;51.118;7.210;2022-12-07T00:10:47;29.10;;;24.63;;
6983;SDS011;3532;51.118;7.210;2022-12-07T00:13:13;30.67;;;25.60;;
6983;SDS011;3532;51.118;7.210;2022-12-07T00:15:38;31.63;;;26.60;;
6983;SDS011;3532;51.118;7.210;2022-12-07T00:18:03;32.23;;;25.67;;
6983;SDS011;3532;51.118;7.210;2022-12-07T00:20:29;34.00;;;26.33;;
6983;SDS011;3532;51.118;7.210;2022-12-07T00:22:55;36.73;;;28.90;;
6983;SDS011;3532;51.118;7.210;2022-12-07T00:25:20;37.07;;;27.97;;
6983;SDS011;3532;51.118;7.210;2022-12-07T00:27:45;40.17;;;30.17;;
6983;SDS011;3532;51.118;7.210;2022-12-07T00:30:11;33.60;;;29.40;;
6983;SDS011;3532;51.118;7.210;2022-12-07T00:32:36;34.33;;;29.70;;
6983;SDS011;3532;51.118;7.210;2022-12-07T00:35:01;38.50;;;30.87;;
6983;SDS011;3532;51.118;7.210;2022-12-07T00:37:27;37.60;;;28.90;;
6983;SDS011;3532;51.118;7.210;2022-12-07T00:39:52;36.10;;;29.37;;
6983;SDS011;3532;51.118;7.210;2022-12-07T00:42:17;40.13;;;31.10;;
6983;SDS011;3532;51.118;7.210;2022-12-07T00:44:43;41.90;;;30.97;;
6983;SDS011;3532;51.118;7.210;2022-12-07T00:47:08;43.10;;;31.43;;
6983;SDS011;3532;51.118;7.210;2022-12-07T00:49:33;40.33;;;30.80;;
6983;SDS011;3532;51.118;7.210;2022-12-07T00:51:59;42.60;;;32.43;;
6983;SDS011;3532;51.118;7.210;2022-12-07T00:54:24;43.70;;;32.33;;
6983;SDS011;3532;51.118;7.210;2022-12-07T00:56:49;39.70;;;31.27;;
6983;SDS011;3532;51.118;7.210;2022-12-07T00:59:15;42.77;;;33.80;;
6983;SDS011;3532;51.118;7.210;2022-12-07T01:01:40;41.40;;;33.37;;
6983;SDS011;3532;51.118;7.210;2022-12-07T01:04:05;41.43;;;31.87;;
6983;SDS011;3532;51.118;7.210;2022-12-07T01:06:31;42.93;;;34.07;;
6983;SDS011;3532;51.118;7.210;2022-12-07T01:08:56;43.00;;;32.37;;
6983;SDS011;3532;51.118;7.210;2022-12-07T01:11:23;45.83;;;34.17;;
6983;SDS011;3532;51.118;7.210;2022-12-07T01:13:50;46.80;;;34.87;;
6983;SDS011;3532;51.118;7.210;2022-12-07T01:16:16;48.07;;;37.13;;
6983;SDS011;3532;51.118;7.210;2022-12-07T01:18:42;53.63;;;37.03;;
6983;SDS011;3532;51.118;7.210;2022-12-07T01:21:12;60.30;;;38.13;;
6983;SDS011;3532;51.118;7.210;2022-12-07T01:23:39;53.10;;;36.93;;
6983;SDS011;3532;51.118;7.210;2022-12-07T01:26:06;59.83;;;38.90;;
6983;SDS011;3532;51.118;7.210;2022-12-07T01:28:34;47.10;;;36.57;;
6983;SDS011;3532;51.118;7.210;2022-12-07T01:31:01;47.97;;;37.23;;
6983;SDS011;3532;51.118;7.210;2022-12-07T01:33:29;45.57;;;35.30;;
6983;SDS011;3532;51.118;7.210;2022-12-07T01:36:06;57.30;;;39.67;;
6983;SDS011;3532;51.118;7.210;2022-12-07T01:38:33;53.87;;;37.53;;
6983;SDS011;3532;51.118;7.210;2022-12-07T01:40:59;51.70;;;38.83;;
6983;SDS011;3532;51.118;7.210;2022-12-07T01:43:25;52.97;;;38.60;;
6983;SDS011;3532;51.118;7.210;2022-12-07T01:45:53;53.30;;;39.30;;
6983;SDS011;3532;51.118;7.210;2022-12-07T01:48:21;52.33;;;36.43;;
6983;SDS011;3532;51.118;7.210;2022-12-07T01:50:49;50.37;;;37.83;;
6983;SDS011;3532;51.118;7.210;2022-12-07T01:53:16;47.63;;;35.53;;
6983;SDS011;3532;51.118;7.210;2022-12-07T01:55:43;48.33;;;36.70;;
6983;SDS011;3532;51.118;7.210;2022-12-07T01:58:09;50.23;;;38.17;;
6983;SDS011;3532;51.118;7.210;2022-12-07T02:00:36;54.60;;;38.17;;
6983;SDS011;3532;51.118;7.210;2022-12-07T02:03:07;58.43;;;38.60;;
6983;SDS011;3532;51.118;7.210;2022-12-07T02:05:35;54.93;;;38.37;;
6983;SDS011;3532;51.118;7.210;2022-12-07T02:08:02;49.50;;;38.43;;
6983;SDS011;3532;51.118;7.210;2022-12-07T02:10:29;52.87;;;37.90;;
6983;SDS011;3532;51.118;7.210;2022-12-07T02:12:56;49.70;;;38.17;;
6983;SDS011;3532;51.118;7.210;2022-12-07T02:15:34;43.30;;;32.83;;
6983;SDS011;3532;51.118;7.210;2022-12-07T02:18:09;44.73;;;35.60;;
6983;SDS011;3532;51.118;7.210;2022-12-07T02:20:44;41.57;;;32.90;;
6983;SDS011;3532;51.118;7.210;2022-12-07T02:23:28;44.27;;;31.37;;
6983;SDS011;3532;51.118;7.210;2022-12-07T02:31:55;41.80;;;34.03;;
6983;SDS011;3532;51.118;7.210;2022-12-07T02:34:24;51.73;;;36.37;;
6983;SDS011;3532;51.118;7.210;2022-12-07T02:36:58;39.80;;;32.87;;
6983;SDS011;3532;51.118;7.210;2022-12-07T02:39:39;50.87;;;34.80;;
6983;SDS011;3532;51.118;7.210;2022-12-07T02:42:10;42.03;;;34.63;;
6983;SDS011;3532;51.118;7.210;2022-12-07T02:44:49;43.13;;;34.97;;
6983;SDS011;3532;51.118;7.210;2022-12-07T02:47:16;46.67;;;35.60;;
6983;SDS011;3532;51.118;7.210;2022-12-07T02:49:42;41.80;;;33.27;;
6983;SDS011;3532;51.118;7.210;2022-12-07T02:52:08;44.37;;;34.93;;
6983;SDS011;3532;51.118;7.210;2022-12-07T02:54:33;45.23;;;34.60;;
6983;SDS011;3532;51.118;7.210;2022-12-07T03:00:19;42.43;;;33.10;;
6983;SDS011;3532;51.118;7.210;2022-12-07T03:02:59;46.77;;;33.97;;
6983;SDS011;3532;51.118;7.210;2022-12-07T03:11:24;70.23;;;39.10;;
6983;SDS011;3532;51.118;7.210;2022-12-07T03:14:03;47.00;;;34.57;;
6983;SDS011;3532;51.118;7.210;2022-12-07T03:16:37;64.07;;;39.93;;
6983;SDS011;3532;51.118;7.210;2022-12-07T03:19:11;52.17;;;38.17;;
6983;SDS011;3532;51.118;7.210;2022-12-07T03:21:39;125.07;;;46.07;;
6983;SDS011;3532;51.118;7.210;2022-12-07T03:24:12;60.83;;;39.00;;
6983;SDS011;3532;51.118;7.210;2022-12-07T03:26:44;68.93;;;42.47;;
6983;SDS011;3532;51.118;7.210;2022-12-07T03:29:15;69.97;;;41.90;;
6983;SDS011;3532;51.118;7.210;2022-12-07T03:31:55;63.77;;;39.60;;
6983;SDS011;3532;51.118;7.210;2022-12-07T03:34:26;64.00;;;39.93;;
6983;SDS011;3532;51.118;7.210;2022-12-07T03:37:00;56.23;;;39.90;;
6983;SDS011;3532;51.118;7.210;2022-12-07T03:39:34;59.27;;;39.93;;
6983;SDS011;3532;51.118;7.210;2022-12-07T03:42:01;51.80;;;39.67;;
6983;SDS011;3532;51.118;7.210;2022-12-07T03:44:27;51.37;;;37.13;;
6983;SDS011;3532;51.118;7.210;2022-12-07T03:46:59;52.80;;;36.87;;
6983;SDS011;3532;51.118;7.210;2022-12-07T03:49:40;59.63;;;39.10;;
6983;SDS011;3532;51.118;7.210;2022-12-07T03:57:17;48.83;;;36.17;;
6983;SDS011;3532;51.118;7.210;2022-12-07T03:59:43;50.67;;;37.80;;
6983;SDS011;3532;51.118;7.210;2022-12-07T04:02:08;45.83;;;36.47;;
6983;SDS011;3532;51.118;7.210;2022-12-07T04:04:36;57.23;;;36.37;;
6983;SDS011;3532;51.118;7.210;2022-12-07T04:07:02;53.23;;;37.77;;
6983;SDS011;3532;51.118;7.210;2022-12-07T04:09:27;50.63;;;35.43;;
6983;SDS011;3532;51.118;7.210;2022-12-07T04:11:53;52.00;;;36.90;;
6983;SDS011;3532;51.118;7.210;2022-12-07T04:14:18;52.73;;;37.47;;
6983;SDS011;3532;51.118;7.210;2022-12-07T04:16:44;54.30;;;36.70;;
6983;SDS011;3532;51.118;7.210;2022-12-07T04:19:10;51.07;;;37.33;;
6983;SDS011;3532;51.118;7.210;2022-12-07T04:21:35;49.20;;;35.20;;
6983;SDS011;3532;51.118;7.210;2022-12-07T04:24:01;56.20;;;37.07;;
6983;SDS011;3532;51.118;7.210;2022-12-07T04:26:26;45.20;;;36.20;;
6983;SDS011;3532;51.118;7.210;2022-12-07T04:28:51;50.60;;;35.33;;
6983;SDS011;3532;51.118;7.210;2022-12-07T04:31:17;48.53;;;36.07;;
6983;SDS011;3532;51.118;7.210;2022-12-07T04:33:42;53.27;;;37.93;;
6983;SDS011;3532;51.118;7.210;2022-12-07T04:36:07;49.40;;;35.33;;
6983;SDS011;3532;51.118;7.210;2022-12-07T04:38:33;48.73;;;34.53;;
6983;SDS011;3532;51.118;7.210;2022-12-07T04:40:58;54.50;;;37.07;;
6983;SDS011;3532;51.118;7.210;2022-12-07T04:43:29;48.03;;;34.20;;
6983;SDS011;3532;51.118;7.210;2022-12-07T04:45:54;45.97;;;35.50;;
6983;SDS011;3532;51.118;7.210;2022-12-07T04:48:20;47.87;;;36.67;;
6983;SDS011;3532;51.118;7.210;2022-12-07T04:50:47;49.43;;;35.27;;
6983;SDS011;3532;51.118;7.210;2022-12-07T04:53:13;50.13;;;35.53;;
6983;SDS011;3532;51.118;7.210;2022-12-07T04:55:39;48.73;;;35.97;;
6983;SDS011;3532;51.118;7.210;2022-12-07T04:58:04;52.80;;;35.50;;
6983;SDS011;3532;51.118;7.210;2022-12-07T05:00:29;45.03;;;33.87;;
6983;SDS011;3532;51.118;7.210;2022-12-07T05:02:55;54.17;;;36.17;;
6983;SDS011;3532;51.118;7.210;2022-12-07T05:05:20;40.03;;;29.17;;
6983;SDS011;3532;51.118;7.210;2022-12-07T05:07:45;38.50;;;28.83;;
6983;SDS011;3532;51.118;7.210;2022-12-07T05:10:11;50.20;;;31.90;;
6983;SDS011;3532;51.118;7.210;2022-12-07T05:12:36;46.10;;;30.40;;
6983;SDS011;3532;51.118;7.210;2022-12-07T05:15:01;41.93;;;30.57;;
6983;SDS011;3532;51.118;7.210;2022-12-07T05:17:27;38.67;;;28.63;;
6983;SDS011;3532;51.118;7.210;2022-12-07T05:19:52;40.93;;;28.67;;
6983;SDS011;3532;51.118;7.210;2022-12-07T05:22:17;34.97;;;24.97;;
6983;SDS011;3532;51.118;7.210;2022-12-07T05:24:43;27.10;;;21.67;;
6983;SDS011;3532;51.118;7.210;2022-12-07T05:27:08;28.33;;;21.77;;
6983;SDS011;3532;51.118;7.210;2022-12-07T05:29:33;26.27;;;18.80;;
6983;SDS011;3532;51.118;7.210;2022-12-07T05:31:59;23.73;;;19.00;;
6983;SDS011;3532;51.118;7.210;2022-12-07T05:34:24;22.97;;;18.30;;
6983;SDS011;3532;51.118;7.210;2022-12-07T05:36:49;24.87;;;19.80;;
6983;SDS011;3532;51.118;7.210;2022-12-07T05:39:15;24.80;;;19.13;;
6983;SDS011;3532;51.118;7.210;2022-12-07T05:41:40;25.20;;;19.57;;
6983;SDS011;3532;51.118;7.210;2022-12-07T05:44:24;22.57;;;19.40;;
6983;SDS011;3532;51.118;7.210;2022-12-07T05:46:50;24.33;;;19.43;;
6983;SDS011;3532;51.118;7.210;2022-12-07T05:49:15;22.00;;;16.37;;
6983;SDS011;3532;51.118;7.210;2022-12-07T05:51:40;23.40;;;19.87;;
6983;SDS011;3532;51.118;7.210;2022-12-07T05:54:05;24.03;;;20.87;;
6983;SDS011;3532;51.118;7.210;2022-12-07T05:56:31;26.90;;;20.33;;
6983;SDS011;3532;51.118;7.210;2022-12-07T05:58:56;25.83;;;20.33;;
6983;SDS011;3532;51.118;7.210;2022-12-07T06:01:40;27.73;;;21.40;;
6983;SDS011;3532;51.118;7.210;2022-12-07T06:04:06;24.80;;;21.53;;
6983;SDS011;3532;51.118;7.210;2022-12-07T06:06:31;31.23;;;22.67;;
6983;SDS011;3532;51.118;7.210;2022-12-07T06:08:56;27.40;;;22.80;;
6983;SDS011;3532;51.118;7.210;2022-12-07T06:11:21;34.17;;;23.87;;
6983;SDS011;3532;51.118;7.210;2022-12-07T06:14:05;30.00;;;24.13;;
6983;SDS011;3532;51.118;7.210;2022-12-07T06:16:31;27.83;;;22.50;;
6983;SDS011;3532;51.118;7.210;2022-12-07T06:18:56;26.93;;;23.27;;
6983;SDS011;3532;51.118;7.210;2022-12-07T06:21:21;26.37;;;20.87;;
6983;SDS011;3532;51.118;7.210;2022-12-07T06:23:47;24.33;;;21.37;;
6983;SDS011;3532;51.118;7.210;2022-12-07T06:26:12;26.93;;;22.50;;
6983;SDS011;3532;51.118;7.210;2022-12-07T06:28:38;26.43;;;22.17;;
6983;SDS011;3532;51.118;7.210;2022-12-07T06:31:03;29.73;;;23.53;;
6983;SDS011;3532;51.118;7.210;2022-12-07T06:33:29;31.43;;;24.53;;
6983;SDS011;3532;51.118;7.210;2022-12-07T06:35:54;29.23;;;22.30;;
6983;SDS011;3532;51.118;7.210;2022-12-07T06:38:19;32.03;;;24.70;;
6983;SDS011;3532;51.118;7.210;2022-12-07T06:40:45;34.10;;;24.70;;
6983;SDS011;3532;51.118;7.210;2022-12-07T06:43:10;27.37;;;22.57;;
6983;SDS011;3532;51.118;7.210;2022-12-07T06:45:35;31.77;;;24.07;;
6983;SDS011;3532;51.118;7.210;2022-12-07T06:48:01;31.90;;;24.27;;
6983;SDS011;3532;51.118;7.210;2022-12-07T06:50:26;29.37;;;24.77;;
6983;SDS011;3532;51.118;7.210;2022-12-07T06:52:51;33.40;;;24.30;;
6983;SDS011;3532;51.118;7.210;2022-12-07T06:55:17;28.13;;;22.63;;
6983;SDS011;3532;51.118;7.210;2022-12-07T06:57:42;25.23;;;21.90;;
6983;SDS011;3532;51.118;7.210;2022-12-07T07:00:08;25.50;;;19.50;;
6983;SDS011;3532;51.118;7.210;2022-12-07T07:02:34;24.93;;;20.03;;
6983;SDS011;3532;51.118;7.210;2022-12-07T07:04:59;25.90;;;20.17;;
6983;SDS011;3532;51.118;7.210;2022-12-07T07:07:24;27.10;;;21.93;;
6983;SDS011;3532;51.118;7.210;2022-12-07T07:09:50;22.93;;;19.33;;
6983;SDS011;3532;51.118;7.210;2022-12-07T07:12:15;26.60;;;21.37;;
6983;SDS011;3532;51.118;7.210;2022-12-07T07:14:40;30.83;;;23.27;;
6983;SDS011;3532;51.118;7.210;2022-12-07T07:17:06;28.23;;;21.93;;
6983;SDS011;3532;51.118;7.210;2022-12-07T07:19:32;28.67;;;21.10;;
6983;SDS011;3532;51.118;7.210;2022-12-07T07:21:57;21.93;;;18.23;;
6983;SDS011;3532;51.118;7.210;2022-12-07T07:24:23;19.00;;;16.13;;
6983;SDS011;3532;51.118;7.210;2022-12-07T07:26:48;21.43;;;17.13;;
6983;SDS011;3532;51.118;7.210;2022-12-07T07:29:13;21.93;;;18.93;;
6983;SDS011;3532;51.118;7.210;2022-12-07T07:31:38;23.50;;;19.30;;
6983;SDS011;3532;51.118;7.210;2022-12-07T07:34:04;26.20;;;21.67;;
6983;SDS011;3532;51.118;7.210;2022-12-07T07:36:29;23.60;;;19.33;;
6983;SDS011;3532;51.118;7.210;2022-12-07T07:38:54;29.07;;;20.67;;
6983;SDS011;3532;51.118;7.210;2022-12-07T07:41:20;21.83;;;18.53;;
6983;SDS011;3532;51.118;7.210;2022-12-07T07:43:45;23.90;;;19.37;;
6983;SDS011;3532;51.118;7.210;2022-12-07T07:46:10;23.73;;;20.03;;
6983;SDS011;3532;51.118;7.210;2022-12-07T07:48:35;29.90;;;21.63;;
6983;SDS011;3532;51.118;7.210;2022-12-07T07:51:04;25.07;;;20.47;;
6983;SDS011;3532;51.118;7.210;2022-12-07T07:53:30;27.80;;;21.40;;
6983;SDS011;3532;51.118;7.210;2022-12-07T07:55:56;23.33;;;19.77;;
6983;SDS011;3532;51.118;7.210;2022-12-07T07:58:21;23.23;;;19.37;;
6983;SDS011;3532;51.118;7.210;2022-12-07T08:00:47;29.43;;;21.17;;
6983;SDS011;3532;51.118;7.210;2022-12-07T08:03:13;28.20;;;23.53;;
6983;SDS011;3532;51.118;7.210;2022-12-07T08:05:38;29.90;;;22.23;;
6983;SDS011;3532;51.118;7.210;2022-12-07T08:08:04;25.37;;;22.33;;
6983;SDS011;3532;51.118;7.210;2022-12-07T08:10:29;33.67;;;22.60;;
6983;SDS011;3532;51.118;7.210;2022-12-07T08:12:56;31.97;;;23.43;;
6983;SDS011;3532;51.118;7.210;2022-12-07T08:15:39;28.37;;;21.70;;
6983;SDS011;3532;51.118;7.210;2022-12-07T08:18:06;29.60;;;22.50;;
6983;SDS011;3532;51.118;7.210;2022-12-07T08:20:32;27.67;;;20.70;;
6983;SDS011;3532;51.118;7.210;2022-12-07T08:22:58;28.60;;;21.37;;
6983;SDS011;3532;51.118;7.210;2022-12-07T08:25:23;29.33;;;21.63;;
6983;SDS011;3532;51.118;7.210;2022-12-07T08:27:49;26.10;;;22.47;;
6983;SDS011;3532;51.118;7.210;2022-12-07T08:30:14;26.77;;;21.20;;
6983;SDS011;3532;51.118;7.210;2022-12-07T08:32:40;27.70;;;21.70;;
6983;SDS011;3532;51.118;7.210;2022-12-07T08:35:05;26.23;;;22.67;;
6983;SDS011;3532;51.118;7.210;2022-12-07T08:37:31;27.93;;;20.30;;
6983;SDS011;3532;51.118;7.210;2022-12-07T08:39:57;24.10;;;19.60;;
6983;SDS011;3532;51.118;7.210;2022-12-07T08:42:22;24.03;;;19.10;;
6983;SDS011;3532;51.118;7.210;2022-12-07T08:44:52;22.70;;;19.27;;
6983;SDS011;3532;51.118;7.210;2022-12-07T08:47:17;21.57;;;18.57;;
6983;SDS011;3532;51.118;7.210;2022-12-07T08:49:43;24.70;;;19.67;;
6983;SDS011;3532;51.118;7.210;2022-12-07T08:52:11;23.53;;;18.93;;
6983;SDS011;3532;51.118;7.210;2022-12-07T08:54:36;22.77;;;17.30;;
6983;SDS011;3532;51.118;7.210;2022-12-07T08:57:03;21.03;;;15.80;;
6983;SDS011;3532;51.118;7.210;2022-12-07T08:59:29;20.70;;;17.00;;
6983;SDS011;3532;51.118;7.210;2022-12-07T09:01:55;22.83;;;18.53;;
6983;SDS011;3532;51.118;7.210;2022-12-07T09:04:20;19.70;;;16.80;;
6983;SDS011;3532;51.118;7.210;2022-12-07T09:06:46;22.43;;;16.63;;
6983;SDS011;3532;51.118;7.210;2022-12-07T09:09:11;24.30;;;16.57;;
6983;SDS011;3532;51.118;7.210;2022-12-07T09:11:38;24.50;;;17.47;;
6983;SDS011;3532;51.118;7.210;2022-12-07T09:14:04;22.67;;;16.20;;
6983;SDS011;3532;51.118;7.210;2022-12-07T09:16:29;22.53;;;16.37;;
6983;SDS011;3532;51.118;7.210;2022-12-07T09:18:55;26.50;;;19.60;;
6983;SDS011;3532;51.118;7.210;2022-12-07T09:21:20;23.27;;;19.13;;
6983;SDS011;3532;51.118;7.210;2022-12-07T09:23:45;23.30;;;19.40;;
6983;SDS011;3532;51.118;7.210;2022-12-07T09:26:11;26.13;;;20.53;;
6983;SDS011;3532;51.118;7.210;2022-12-07T09:28:36;23.17;;;18.60;;
6983;SDS011;3532;51.118;7.210;2022-12-07T09:31:02;23.00;;;18.67;;
6983;SDS011;3532;51.118;7.210;2022-12-07T09:33:28;20.67;;;16.90;;
6983;SDS011;3532;51.118;7.210;2022-12-07T09:35:53;24.10;;;20.47;;
6983;SDS011;3532;51.118;7.210;2022-12-07T09:38:19;26.90;;;18.17;;
6983;SDS011;3532;51.118;7.210;2022-12-07T09:40:44;20.10;;;17.83;;
6983;SDS011;3532;51.118;7.210;2022-12-07T09:43:17;21.97;;;17.17;;
6983;SDS011;3532;51.118;7.210;2022-12-07T09:45:45;20.17;;;17.60;;
6983;SDS011;3532;51.118;7.210;2022-12-07T09:48:21;19.53;;;17.47;;
6983;SDS011;3532;51.118;7.210;2022-12-07T09:50:51;20.37;;;16.63;;
6983;SDS011;3532;51.118;7.210;2022-12-07T09:53:25;20.33;;;16.43;;
6983;SDS011;3532;51.118;7.210;2022-12-07T09:56:01;18.00;;;16.10;;
6983;SDS011;3532;51.118;7.210;2022-12-07T09:58:27;22.37;;;16.10;;
6983;SDS011;3532;51.118;7.210;2022-12-07T10:00:58;23.20;;;15.90;;
6983;SDS011;3532;51.118;7.210;2022-12-07T10:03:26;19.37;;;15.73;;
6983;SDS011;3532;51.118;7.210;2022-12-07T10:05:53;24.40;;;16.03;;
6983;SDS011;3532;51.118;7.210;2022-12-07T10:08:18;18.13;;;16.23;;
6983;SDS011;3532;51.118;7.210;2022-12-07T10:10:45;19.53;;;15.70;;
6983;SDS011;3532;51.118;7.210;2022-12-07T10:13:15;19.93;;;17.30;;
6983;SDS011;3532;51.118;7.210;2022-12-07T10:15:56;19.97;;;16.23;;
6983;SDS011;3532;51.118;7.210;2022-12-07T10:21:03;20.30;;;15.73;;
6983;SDS011;3532;51.118;7.210;2022-12-07T10:23:37;20.70;;;14.77;;
6983;SDS011;3532;51.118;7.210;2022-12-07T10:31:39;21.63;;;16.13;;
6983;SDS011;3532;51.118;7.210;2022-12-07T10:37:34;21.17;;;16.73;;
6983;SDS011;3532;51.118;7.210;2022-12-07T10:39:56;21.63;;;14.13;;
6983;SDS011;3532;51.118;7.210;2022-12-07T10:42:26;14.63;;;13.13;;
6983;SDS011;3532;51.118;7.210;2022-12-07T10:47:36;15.47;;;13.37;;
6983;SDS011;3532;51.118;7.210;2022-12-07T10:55:18;17.33;;;13.63;;
6983;SDS011;3532;51.118;7.210;2022-12-07T11:00:29;17.30;;;13.13;;
6983;SDS011;3532;51.118;7.210;2022-12-07T11:03:19;15.43;;;13.57;;
6983;SDS011;3532;51.118;7.210;2022-12-07T11:08:51;19.80;;;14.97;;
6983;SDS011;3532;51.118;7.210;2022-12-07T11:11:34;17.73;;;15.93;;
6983;SDS011;3532;51.118;7.210;2022-12-07T11:22:29;18.37;;;16.37;;
6983;SDS011;3532;51.118;7.210;2022-12-07T11:25:20;19.33;;;15.27;;
6983;SDS011;3532;51.118;7.210;2022-12-07T11:30:40;20.23;;;16.97;;
6983;SDS011;3532;51.118;7.210;2022-12-07T11:33:27;22.53;;;16.33;;
6983;SDS011;3532;51.118;7.210;2022-12-07T11:38:47;22.87;;;16.70;;
6983;SDS011;3532;51.118;7.210;2022-12-07T11:41:19;21.57;;;17.63;;
6983;SDS011;3532;51.118;7.210;2022-12-07T11:43:56;18.70;;;16.23;;
6983;SDS011;3532;51.118;7.210;2022-12-07T11:46:27;18.63;;;16.17;;
6983;SDS011;3532;51.118;7.210;2022-12-07T11:49:08;16.23;;;14.30;;
6983;SDS011;3532;51.118;7.210;2022-12-07T11:51:37;24.57;;;15.37;;
6983;SDS011;3532;51.118;7.210;2022-12-07T11:57:08;18.93;;;15.07;;
6983;SDS011;3532;51.118;7.210;2022-12-07T11:59:42;18.03;;;14.57;;
6983;SDS011;3532;51.118;7.210;2022-12-07T12:02:13;16.47;;;13.50;;
6983;SDS011;3532;51.118;7.210;2022-12-07T12:04:52;18.40;;;14.73;;
6983;SDS011;3532;51.118;7.210;2022-12-07T12:07:28;17.63;;;13.20;;
6983;SDS011;3532;51.118;7.210;2022-12-07T12:13:43;17.63;;;13.33;;
6983;SDS011;3532;51.118;7.210;2022-12-07T12:16:15;19.00;;;12.93;;
6983;SDS011;3532;51.118;7.210;2022-12-07T12:18:53;20.90;;;14.90;;
6983;SDS011;3532;51.118;7.210;2022-12-07T12:21:31;15.77;;;13.97;;
6983;SDS011;3532;51.118;7.210;2022-12-07T12:24:14;18.13;;;13.20;;
6983;SDS011;3532;51.118;7.210;2022-12-07T12:26:48;17.70;;;13.17;;
6983;SDS011;3532;51.118;7.210;2022-12-07T12:32:13;18.10;;;11.80;;
6983;SDS011;3532;51.118;7.210;2022-12-07T12:42:48;15.80;;;10.47;;
6983;SDS011;3532;51.118;7.210;2022-12-07T12:45:25;14.20;;;10.77;;
6983;SDS011;3532;51.118;7.210;2022-12-07T12:50:25;11.93;;;9.20;;
6983;SDS011;3532;51.118;7.210;2022-12-07T13:00:45;11.70;;;7.07;;
6983;SDS011;3532;51.118;7.210;2022-12-07T13:03:26;9.20;;;6.43;;
6983;SDS011;3532;51.118;7.210;2022-12-07T13:08:42;7.90;;;5.73;;
6983;SDS011;3532;51.118;7.210;2022-12-07T13:11:18;7.57;;;5.73;;
6983;SDS011;3532;51.118;7.210;2022-12-07T13:14:27;8.60;;;5.33;;
6983;SDS011;3532;51.118;7.210;2022-12-07T13:16:58;8.33;;;5.53;;
6983;SDS011;3532;51.118;7.210;2022-12-07T13:19:38;10.30;;;5.43;;
6983;SDS011;3532;51.118;7.210;2022-12-07T13:24:58;7.87;;;5.17;;
6983;SDS011;3532;51.118;7.210;2022-12-07T13:27:27;10.63;;;5.77;;
6983;SDS011;3532;51.118;7.210;2022-12-07T13:29:53;7.70;;;5.10;;
6983;SDS011;3532;51.118;7.210;2022-12-07T13:32:25;7.53;;;4.93;;
6983;SDS011;3532;51.118;7.210;2022-12-07T13:34:52;7.93;;;4.67;;
6983;SDS011;3532;51.118;7.210;2022-12-07T13:39:51;10.70;;;5.60;;
6983;SDS011;3532;51.118;7.210;2022-12-07T13:44:56;10.17;;;4.63;;
6983;SDS011;3532;51.118;7.210;2022-12-07T13:47:41;6.53;;;4.83;;
6983;SDS011;3532;51.118;7.210;2022-12-07T13:50:21;8.40;;;4.93;;
6983;SDS011;3532;51.118;7.210;2022-12-07T13:52:47;9.47;;;5.83;;
6983;SDS011;3532;51.118;7.210;2022-12-07T13:55:14;5.93;;;4.70;;
6983;SDS011;3532;51.118;7.210;2022-12-07T13:57:42;7.13;;;4.57;;
6983;SDS011;3532;51.118;7.210;2022-12-07T14:00:16;6.57;;;5.40;;
6983;SDS011;3532;51.118;7.210;2022-12-07T14:02:57;13.83;;;6.57;;
6983;SDS011;3532;51.118;7.210;2022-12-07T14:05:25;7.23;;;6.17;;
6983;SDS011;3532;51.118;7.210;2022-12-07T14:07:59;10.20;;;5.30;;
6983;SDS011;3532;51.118;7.210;2022-12-07T14:10:33;10.97;;;5.73;;
6983;SDS011;3532;51.118;7.210;2022-12-07T14:13:00;8.27;;;5.17;;
6983;SDS011;3532;51.118;7.210;2022-12-07T14:15:28;9.63;;;5.80;;
6983;SDS011;3532;51.118;7.210;2022-12-07T14:17:55;9.40;;;5.70;;
6983;SDS011;3532;51.118;7.210;2022-12-07T14:20:32;12.43;;;5.80;;
6983;SDS011;3532;51.118;7.210;2022-12-07T14:23:01;9.43;;;6.20;;
6983;SDS011;3532;51.118;7.210;2022-12-07T14:25:34;7.60;;;4.87;;
6983;SDS011;3532;51.118;7.210;2022-12-07T14:28:10;7.00;;;5.87;;
6983;SDS011;3532;51.118;7.210;2022-12-07T14:30:56;7.03;;;4.83;;
6983;SDS011;3532;51.118;7.210;2022-12-07T14:33:22;10.13;;;6.53;;
6983;SDS011;3532;51.118;7.210;2022-12-07T14:35:48;12.37;;;5.97;;
6983;SDS011;3532;51.118;7.210;2022-12-07T14:38:14;12.50;;;6.17;;
6983;SDS011;3532;51.118;7.210;2022-12-07T14:40:39;7.87;;;5.47;;
6983;SDS011;3532;51.118;7.210;2022-12-07T14:43:08;8.83;;;5.47;;
6983;SDS011;3532;51.118;7.210;2022-12-07T14:45:35;9.30;;;5.17;;
6983;SDS011;3532;51.118;7.210;2022-12-07T14:48:00;9.73;;;5.27;;
6983;SDS011;3532;51.118;7.210;2022-12-07T14:50:26;6.87;;;5.30;;
6983;SDS011;3532;51.118;7.210;2022-12-07T14:52:52;7.03;;;4.77;;
6983;SDS011;3532;51.118;7.210;2022-12-07T14:55:27;8.10;;;5.20;;
6983;SDS011;3532;51.118;7.210;2022-12-07T14:57:56;7.23;;;5.50;;
6983;SDS011;3532;51.118;7.210;2022-12-07T15:00:23;8.50;;;5.73;;
6983;SDS011;3532;51.118;7.210;2022-12-07T15:02:49;9.63;;;6.10;;
6983;SDS011;3532;51.118;7.210;2022-12-07T15:05:15;10.80;;;6.20;;
6983;SDS011;3532;51.118;7.210;2022-12-07T15:07:40;13.20;;;7.37;;
6983;SDS011;3532;51.118;7.210;2022-12-07T15:10:06;10.43;;;7.50;;
6983;SDS011;3532;51.118;7.210;2022-12-07T15:12:38;8.13;;;6.60;;
6983;SDS011;3532;51.118;7.210;2022-12-07T15:15:03;11.63;;;7.87;;
6983;SDS011;3532;51.118;7.210;2022-12-07T15:17:29;10.20;;;7.60;;
6983;SDS011;3532;51.118;7.210;2022-12-07T15:19:54;9.17;;;7.13;;
6983;SDS011;3532;51.118;7.210;2022-12-07T15:22:19;8.03;;;6.50;;
6983;SDS011;3532;51.118;7.210;2022-12-07T15:24:45;10.33;;;7.63;;
6983;SDS011;3532;51.118;7.210;2022-12-07T15:27:10;10.67;;;7.60;;
6983;SDS011;3532;51.118;7.210;2022-12-07T15:29:35;14.13;;;7.77;;
6983;SDS011;3532;51.118;7.210;2022-12-07T15:32:01;11.20;;;7.80;;
6983;SDS011;3532;51.118;7.210;2022-12-07T15:34:27;11.03;;;7.67;;
6983;SDS011;3532;51.118;7.210;2022-12-07T15:36:53;10.27;;;6.87;;
6983;SDS011;3532;51.118;7.210;2022-12-07T15:39:19;12.43;;;7.57;;
6983;SDS011;3532;51.118;7.210;2022-12-07T15:41:44;13.77;;;8.70;;
6983;SDS011;3532;51.118;7.210;2022-12-07T15:44:11;11.37;;;8.17;;
6983;SDS011;3532;51.118;7.210;2022-12-07T15:46:55;13.90;;;8.67;;
6983;SDS011;3532;51.118;7.210;2022-12-07T15:49:21;8.67;;;7.33;;
6983;SDS011;3532;51.118;7.210;2022-12-07T15:51:46;13.50;;;10.30;;
6983;SDS011;3532;51.118;7.210;2022-12-07T15:54:16;12.93;;;9.60;;
6983;SDS011;3532;51.118;7.210;2022-12-07T15:56:44;10.77;;;9.43;;
6983;SDS011;3532;51.118;7.210;2022-12-07T15:59:09;9.63;;;8.33;;
6983;SDS011;3532;51.118;7.210;2022-12-07T16:01:34;10.07;;;8.97;;
6983;SDS011;3532;51.118;7.210;2022-12-07T16:04:00;14.80;;;10.07;;
6983;SDS011;3532;51.118;7.210;2022-12-07T16:06:25;14.30;;;8.50;;
6983;SDS011;3532;51.118;7.210;2022-12-07T16:08:51;13.63;;;9.37;;
6983;SDS011;3532;51.118;7.210;2022-12-07T16:11:17;12.17;;;9.87;;
6983;SDS011;3532;51.118;7.210;2022-12-07T16:13:42;16.70;;;10.23;;
6983;SDS011;3532;51.118;7.210;2022-12-07T16:16:09;16.33;;;9.37;;
6983;SDS011;3532;51.118;7.210;2022-12-07T16:18:36;14.73;;;9.57;;
6983;SDS011;3532;51.118;7.210;2022-12-07T16:21:02;14.47;;;10.27;;
6983;SDS011;3532;51.118;7.210;2022-12-07T16:23:28;13.77;;;9.30;;
6983;SDS011;3532;51.118;7.210;2022-12-07T16:25:53;12.73;;;10.87;;
6983;SDS011;3532;51.118;7.210;2022-12-07T16:28:18;15.23;;;9.70;;
6983;SDS011;3532;51.118;7.210;2022-12-07T16:30:44;11.70;;;10.50;;
6983;SDS011;3532;51.118;7.210;2022-12-07T16:33:10;13.40;;;11.37;;
6983;SDS011;3532;51.118;7.210;2022-12-07T16:35:38;19.90;;;11.97;;
6983;SDS011;3532;51.118;7.210;2022-12-07T16:38:06;14.13;;;12.27;;